sensor_id;sensor_type;location;lat;lon;timestamp;temperature;humidity
1453;DHT22;720;47.738;7.998;2022-08-16T00:00:49;16.80;99.90
1453;DHT22;720;47.738;7.998;2022-08-16T00:03:16;16.70;99.90
1453;DHT22;720;47.738;7.998;2022-08-16T00:05:42;16.60;99.90
1453;DHT22;720;47.738;7.998;2022-08-16T00:08:08;16.50;99.90
1453;DHT22;720;47.738;7.998;2022-08-16T00:10:34;16.50;99.90
1453;DHT22;720;47.738;7.998;2022-08-16T00:13:01;16.50;99.90
1453;DHT22;720;47.738;7.998;2022-08-16T00:15:43;16.50;99.90
1453;DHT22;720;47.738;7.998;2022-08-16T00:18:09;16.50;99.90
1453;DHT22;720;47.738;7.998;2022-08-16T00:20:37;16.60;99.90
1453;DHT22;720;47.738;7.998;2022-08-16T00:23:03;16.60;99.90
1453;DHT22;720;47.738;7.998;2022-08-16T00:25:30;16.70;99.90
1453;DHT22;720;47.738;7.998;2022-08-16T00:27:55;16.60;99.90
1453;DHT22;720;47.738;7.998;2022-08-16T00:30:21;16.60;99.90
1453;DHT22;720;47.738;7.998;2022-08-16T00:32:50;16.60;99.90
1453;DHT22;720;47.738;7.998;2022-08-16T00:35:23;16.60;99.90
1453;DHT22;720;47.738;7.998;2022-08-16T00:37:50;16.60;99.90
1453;DHT22;720;47.738;7.998;2022-08-16T00:40:35;16.60;99.90
1453;DHT22;720;47.738;7.998;2022-08-16T00:43:04;16.50;99.90
1453;DHT22;720;47.738;7.998;2022-08-16T00:45:40;16.50;99.90
1453;DHT22;720;47.738;7.998;2022-08-16T00:48:10;16.50;99.90
1453;DHT22;720;47.738;7.998;2022-08-16T00:50:39;16.50;99.90
1453;DHT22;720;47.738;7.998;2022-08-16T00:53:07;16.60;99.90
1453;DHT22;720;47.738;7.998;2022-08-16T00:55:35;16.70;99.90
1453;DHT22;720;47.738;7.998;2022-08-16T00:58:01;16.80;99.90
1453;DHT22;720;47.738;7.998;2022-08-16T01:00:30;16.80;99.90
1453;DHT22;720;47.738;7.998;2022-08-16T01:02:58;16.80;99.90
1453;DHT22;720;47.738;7.998;2022-08-16T01:05:26;16.70;99.90
1453;DHT22;720;47.738;7.998;2022-08-16T01:07:52;16.80;99.90
1453;DHT22;720;47.738;7.998;2022-08-16T01:10:22;16.70;99.90
1453;DHT22;720;47.738;7.998;2022-08-16T01:12:48;16.60;99.90
1453;DHT22;720;47.738;7.998;2022-08-16T01:15:14;16.50;99.90
1453;DHT22;720;47.738;7.998;2022-08-16T01:17:42;16.40;99.90
1453;DHT22;720;47.738;7.998;2022-08-16T01:20:11;16.30;99.90
1453;DHT22;720;47.738;7.998;2022-08-16T01:22:56;16.40;99.90
1453;DHT22;720;47.738;7.998;2022-08-16T01:25:28;16.30;99.90
1453;DHT22;720;47.738;7.998;2022-08-16T01:27:57;16.30;99.90
1453;DHT22;720;47.738;7.998;2022-08-16T01:30:28;16.30;99.90
1453;DHT22;720;47.738;7.998;2022-08-16T01:32:57;16.20;99.90
1453;DHT22;720;47.738;7.998;2022-08-16T01:35:29;16.20;99.90
1453;DHT22;720;47.738;7.998;2022-08-16T01:37:56;16.10;99.90
1453;DHT22;720;47.738;7.998;2022-08-16T01:40:28;16.10;99.90
1453;DHT22;720;47.738;7.998;2022-08-16T01:42:55;16.10;99.90
1453;DHT22;720;47.738;7.998;2022-08-16T01:45:21;16.10;99.90
1453;DHT22;720;47.738;7.998;2022-08-16T01:47:48;16.00;99.90
1453;DHT22;720;47.738;7.998;2022-08-16T01:50:15;16.00;99.90
1453;DHT22;720;47.738;7.998;2022-08-16T01:52:41;15.90;99.90
1453;DHT22;720;47.738;7.998;2022-08-16T01:55:07;15.90;99.90
1453;DHT22;720;47.738;7.998;2022-08-16T01:57:33;15.80;99.90
1453;DHT22;720;47.738;7.998;2022-08-16T01:59:59;15.80;99.90
1453;DHT22;720;47.738;7.998;2022-08-16T02:02:25;15.80;99.90
1453;DHT22;720;47.738;7.998;2022-08-16T02:04:51;15.80;99.90
1453;DHT22;720;47.738;7.998;2022-08-16T02:07:18;15.80;99.90
1453;DHT22;720;47.738;7.998;2022-08-16T02:09:46;15.80;99.90
1453;DHT22;720;47.738;7.998;2022-08-16T02:12:14;15.80;99.90
1453;DHT22;720;47.738;7.998;2022-08-16T02:14:41;15.90;99.90
1453;DHT22;720;47.738;7.998;2022-08-16T02:17:09;15.80;99.90
1453;DHT22;720;47.738;7.998;2022-08-16T02:19:40;15.80;99.90
1453;DHT22;720;47.738;7.998;2022-08-16T02:22:08;15.70;99.90
1453;DHT22;720;47.738;7.998;2022-08-16T02:24:36;15.60;99.90
1453;DHT22;720;47.738;7.998;2022-08-16T02:27:03;15.60;99.90
1453;DHT22;720;47.738;7.998;2022-08-16T02:29:28;15.60;99.90
1453;DHT22;720;47.738;7.998;2022-08-16T02:31:54;15.60;99.90
1453;DHT22;720;47.738;7.998;2022-08-16T02:34:20;15.50;99.90
1453;DHT22;720;47.738;7.998;2022-08-16T02:36:46;15.60;99.90
1453;DHT22;720;47.738;7.998;2022-08-16T02:39:13;15.60;99.90
1453;DHT22;720;47.738;7.998;2022-08-16T02:41:41;15.50;99.90
1453;DHT22;720;47.738;7.998;2022-08-16T02:44:10;15.50;99.90
1453;DHT22;720;47.738;7.998;2022-08-16T02:46:36;15.50;99.90
1453;DHT22;720;47.738;7.998;2022-08-16T02:49:03;15.40;99.90
1453;DHT22;720;47.738;7.998;2022-08-16T02:51:29;15.40;99.90
1453;DHT22;720;47.738;7.998;2022-08-16T02:53:55;15.40;99.90
1453;DHT22;720;47.738;7.998;2022-08-16T02:56:21;15.50;99.90
1453;DHT22;720;47.738;7.998;2022-08-16T02:58:49;15.50;99.90
1453;DHT22;720;47.738;7.998;2022-08-16T03:01:20;15.50;99.90
1453;DHT22;720;47.738;7.998;2022-08-16T03:03:50;15.40;99.90
1453;DHT22;720;47.738;7.998;2022-08-16T03:06:17;15.40;99.90
1453;DHT22;720;47.738;7.998;2022-08-16T03:08:48;15.30;99.90
1453;DHT22;720;47.738;7.998;2022-08-16T03:11:14;15.30;99.90
1453;DHT22;720;47.738;7.998;2022-08-16T03:13:46;15.20;99.90
1453;DHT22;720;47.738;7.998;2022-08-16T03:16:13;15.10;99.90
1453;DHT22;720;47.738;7.998;2022-08-16T03:18:39;15.10;99.90
1453;DHT22;720;47.738;7.998;2022-08-16T03:21:06;15.20;99.90
1453;DHT22;720;47.738;7.998;2022-08-16T03:23:32;15.20;99.90
1453;DHT22;720;47.738;7.998;2022-08-16T03:25:59;15.10;99.90
1453;DHT22;720;47.738;7.998;2022-08-16T03:28:24;15.20;99.90
1453;DHT22;720;47.738;7.998;2022-08-16T03:30:50;15.10;99.90
1453;DHT22;720;47.738;7.998;2022-08-16T03:33:16;15.10;99.90
1453;DHT22;720;47.738;7.998;2022-08-16T03:35:42;15.10;99.90
1453;DHT22;720;47.738;7.998;2022-08-16T03:38:12;15.10;99.90
1453;DHT22;720;47.738;7.998;2022-08-16T03:40:39;15.10;99.90
1453;DHT22;720;47.738;7.998;2022-08-16T03:43:07;15.00;99.90
1453;DHT22;720;47.738;7.998;2022-08-16T03:45:34;15.00;99.90
1453;DHT22;720;47.738;7.998;2022-08-16T03:48:00;15.00;99.90
1453;DHT22;720;47.738;7.998;2022-08-16T03:50:27;15.00;99.90
1453;DHT22;720;47.738;7.998;2022-08-16T03:52:53;14.90;99.90
1453;DHT22;720;47.738;7.998;2022-08-16T03:55:19;14.80;99.90
1453;DHT22;720;47.738;7.998;2022-08-16T03:57:44;14.90;99.90
1453;DHT22;720;47.738;7.998;2022-08-16T04:00:12;15.00;99.90
1453;DHT22;720;47.738;7.998;2022-08-16T04:02:39;14.90;99.90
1453;DHT22;720;47.738;7.998;2022-08-16T04:05:06;14.90;99.90
1453;DHT22;720;47.738;7.998;2022-08-16T04:07:31;14.80;99.90
1453;DHT22;720;47.738;7.998;2022-08-16T04:09:57;14.80;99.90
1453;DHT22;720;47.738;7.998;2022-08-16T04:12:23;14.90;99.90
1453;DHT22;720;47.738;7.998;2022-08-16T04:14:49;14.90;99.90
1453;DHT22;720;47.738;7.998;2022-08-16T04:17:15;14.80;99.90
1453;DHT22;720;47.738;7.998;2022-08-16T04:19:41;14.80;99.90
1453;DHT22;720;47.738;7.998;2022-08-16T04:22:09;14.80;99.90
1453;DHT22;720;47.738;7.998;2022-08-16T04:24:36;14.80;99.90
1453;DHT22;720;47.738;7.998;2022-08-16T04:27:02;14.80;99.90
1453;DHT22;720;47.738;7.998;2022-08-16T04:29:28;14.80;99.90
1453;DHT22;720;47.738;7.998;2022-08-16T04:31:54;14.80;99.90
1453;DHT22;720;47.738;7.998;2022-08-16T04:34:20;14.80;99.90
1453;DHT22;720;47.738;7.998;2022-08-16T04:36:46;14.80;99.90
1453;DHT22;720;47.738;7.998;2022-08-16T04:39:12;14.80;99.90
1453;DHT22;720;47.738;7.998;2022-08-16T04:41:38;14.80;99.90
1453;DHT22;720;47.738;7.998;2022-08-16T04:44:04;14.90;99.90
1453;DHT22;720;47.738;7.998;2022-08-16T04:46:29;14.90;99.90
1453;DHT22;720;47.738;7.998;2022-08-16T04:48:55;14.90;99.90
1453;DHT22;720;47.738;7.998;2022-08-16T04:51:21;15.00;99.90
1453;DHT22;720;47.738;7.998;2022-08-16T04:53:47;15.00;99.90
1453;DHT22;720;47.738;7.998;2022-08-16T04:56:13;15.00;99.90
1453;DHT22;720;47.738;7.998;2022-08-16T04:58:40;15.00;99.90
1453;DHT22;720;47.738;7.998;2022-08-16T05:01:05;15.00;99.90
1453;DHT22;720;47.738;7.998;2022-08-16T05:03:31;15.00;99.90
1453;DHT22;720;47.738;7.998;2022-08-16T05:05:57;15.00;99.90
1453;DHT22;720;47.738;7.998;2022-08-16T05:08:25;15.00;99.90
1453;DHT22;720;47.738;7.998;2022-08-16T05:10:53;15.00;99.90
1453;DHT22;720;47.738;7.998;2022-08-16T05:13:19;15.10;99.90
1453;DHT22;720;47.738;7.998;2022-08-16T05:15:45;15.10;99.90
1453;DHT22;720;47.738;7.998;2022-08-16T05:18:12;15.20;99.90
1453;DHT22;720;47.738;7.998;2022-08-16T05:20:38;15.20;99.90
1453;DHT22;720;47.738;7.998;2022-08-16T05:23:03;15.30;99.90
1453;DHT22;720;47.738;7.998;2022-08-16T05:25:29;15.30;99.90
1453;DHT22;720;47.738;7.998;2022-08-16T05:27:54;15.50;99.90
1453;DHT22;720;47.738;7.998;2022-08-16T05:30:22;15.70;99.90
1453;DHT22;720;47.738;7.998;2022-08-16T05:32:48;15.90;99.90
1453;DHT22;720;47.738;7.998;2022-08-16T05:35:14;16.20;99.90
1453;DHT22;720;47.738;7.998;2022-08-16T05:37:41;16.50;99.90
1453;DHT22;720;47.738;7.998;2022-08-16T05:40:08;17.00;99.90
1453;DHT22;720;47.738;7.998;2022-08-16T05:42:34;17.40;99.90
1453;DHT22;720;47.738;7.998;2022-08-16T05:45:00;17.80;99.90
1453;DHT22;720;47.738;7.998;2022-08-16T05:47:26;18.40;99.90
1453;DHT22;720;47.738;7.998;2022-08-16T05:49:52;18.90;99.90
1453;DHT22;720;47.738;7.998;2022-08-16T05:52:18;19.30;99.10
1453;DHT22;720;47.738;7.998;2022-08-16T05:54:44;19.50;98.40
1453;DHT22;720;47.738;7.998;2022-08-16T05:57:10;19.70;97.70
1453;DHT22;720;47.738;7.998;2022-08-16T05:59:36;19.90;97.20
1453;DHT22;720;47.738;7.998;2022-08-16T06:02:03;20.30;96.70
1453;DHT22;720;47.738;7.998;2022-08-16T06:04:29;20.70;96.30
1453;DHT22;720;47.738;7.998;2022-08-16T06:06:55;20.90;95.70
1453;DHT22;720;47.738;7.998;2022-08-16T06:09:21;20.80;95.50
1453;DHT22;720;47.738;7.998;2022-08-16T06:11:46;20.60;95.40
1453;DHT22;720;47.738;7.998;2022-08-16T06:14:12;20.50;94.90
1453;DHT22;720;47.738;7.998;2022-08-16T06:16:38;20.20;95.30
1453;DHT22;720;47.738;7.998;2022-08-16T06:19:04;20.10;95.80
1453;DHT22;720;47.738;7.998;2022-08-16T06:21:30;20.00;95.90
1453;DHT22;720;47.738;7.998;2022-08-16T06:23:55;19.90;96.30
1453;DHT22;720;47.738;7.998;2022-08-16T06:26:22;19.70;96.70
1453;DHT22;720;47.738;7.998;2022-08-16T06:28:48;19.60;96.90
1453;DHT22;720;47.738;7.998;2022-08-16T06:31:15;19.60;97.30
1453;DHT22;720;47.738;7.998;2022-08-16T06:33:41;19.70;97.80
1453;DHT22;720;47.738;7.998;2022-08-16T06:36:08;20.00;98.00
1453;DHT22;720;47.738;7.998;2022-08-16T06:38:35;20.20;97.30
1453;DHT22;720;47.738;7.998;2022-08-16T06:41:05;20.60;97.40
1453;DHT22;720;47.738;7.998;2022-08-16T06:43:33;21.10;96.60
1453;DHT22;720;47.738;7.998;2022-08-16T06:46:00;21.40;95.80
1453;DHT22;720;47.738;7.998;2022-08-16T06:48:26;21.60;95.80
1453;DHT22;720;47.738;7.998;2022-08-16T06:50:52;21.80;95.60
1453;DHT22;720;47.738;7.998;2022-08-16T06:53:18;22.00;95.20
1453;DHT22;720;47.738;7.998;2022-08-16T06:55:45;22.10;95.00
1453;DHT22;720;47.738;7.998;2022-08-16T06:58:10;22.20;94.90
1453;DHT22;720;47.738;7.998;2022-08-16T07:00:37;22.20;94.70
1453;DHT22;720;47.738;7.998;2022-08-16T07:03:04;22.20;94.90
1453;DHT22;720;47.738;7.998;2022-08-16T07:05:30;22.30;94.90
1453;DHT22;720;47.738;7.998;2022-08-16T07:07:56;22.60;94.30
1453;DHT22;720;47.738;7.998;2022-08-16T07:10:22;23.10;94.10
1453;DHT22;720;47.738;7.998;2022-08-16T07:12:49;23.70;93.70
1453;DHT22;720;47.738;7.998;2022-08-16T07:15:18;24.30;92.60
1453;DHT22;720;47.738;7.998;2022-08-16T07:17:45;24.80;92.10
1453;DHT22;720;47.738;7.998;2022-08-16T07:20:12;25.10;91.30
1453;DHT22;720;47.738;7.998;2022-08-16T07:22:39;25.30;91.30
1453;DHT22;720;47.738;7.998;2022-08-16T07:25:09;25.60;90.30
1453;DHT22;720;47.738;7.998;2022-08-16T07:27:37;26.30;89.20
1453;DHT22;720;47.738;7.998;2022-08-16T07:30:07;27.50;85.50
1453;DHT22;720;47.738;7.998;2022-08-16T07:32:34;28.90;78.20
1453;DHT22;720;47.738;7.998;2022-08-16T07:34:59;30.30;74.10
1453;DHT22;720;47.738;7.998;2022-08-16T07:37:25;31.40;68.40
1453;DHT22;720;47.738;7.998;2022-08-16T07:39:50;32.70;63.70
1453;DHT22;720;47.738;7.998;2022-08-16T07:42:16;33.70;55.80
1453;DHT22;720;47.738;7.998;2022-08-16T07:44:42;34.00;54.80
1453;DHT22;720;47.738;7.998;2022-08-16T07:47:08;33.70;54.40
1453;DHT22;720;47.738;7.998;2022-08-16T07:49:33;32.60;54.80
1453;DHT22;720;47.738;7.998;2022-08-16T07:51:59;32.00;57.80
1453;DHT22;720;47.738;7.998;2022-08-16T07:54:24;32.20;58.30
1453;DHT22;720;47.738;7.998;2022-08-16T07:56:51;33.10;56.40
1453;DHT22;720;47.738;7.998;2022-08-16T07:59:16;33.80;52.80
1453;DHT22;720;47.738;7.998;2022-08-16T08:01:42;34.10;52.00
1453;DHT22;720;47.738;7.998;2022-08-16T08:04:08;33.60;51.50
1453;DHT22;720;47.738;7.998;2022-08-16T08:06:37;33.60;52.20
1453;DHT22;720;47.738;7.998;2022-08-16T08:09:03;33.70;51.70
1453;DHT22;720;47.738;7.998;2022-08-16T08:11:29;33.20;51.00
1453;DHT22;720;47.738;7.998;2022-08-16T08:13:56;32.40;52.00
1453;DHT22;720;47.738;7.998;2022-08-16T08:16:25;32.10;52.80
1453;DHT22;720;47.738;7.998;2022-08-16T08:18:51;32.50;51.60
1453;DHT22;720;47.738;7.998;2022-08-16T08:21:20;32.40;51.00
1453;DHT22;720;47.738;7.998;2022-08-16T08:23:46;32.50;51.70
1453;DHT22;720;47.738;7.998;2022-08-16T08:26:13;32.50;51.90
1453;DHT22;720;47.738;7.998;2022-08-16T08:28:39;32.60;50.70
1453;DHT22;720;47.738;7.998;2022-08-16T08:31:05;32.60;50.60
1453;DHT22;720;47.738;7.998;2022-08-16T08:33:31;32.60;51.00
1453;DHT22;720;47.738;7.998;2022-08-16T08:36:00;33.20;50.10
1453;DHT22;720;47.738;7.998;2022-08-16T08:38:26;33.90;49.80
1453;DHT22;720;47.738;7.998;2022-08-16T08:40:52;34.40;48.80
1453;DHT22;720;47.738;7.998;2022-08-16T08:43:18;35.10;47.40
1453;DHT22;720;47.738;7.998;2022-08-16T08:45:44;35.30;46.20
1453;DHT22;720;47.738;7.998;2022-08-16T08:48:10;35.20;45.10
1453;DHT22;720;47.738;7.998;2022-08-16T08:50:36;35.00;45.10
1453;DHT22;720;47.738;7.998;2022-08-16T08:53:02;34.40;45.10
1453;DHT22;720;47.738;7.998;2022-08-16T08:55:28;34.10;45.50
1453;DHT22;720;47.738;7.998;2022-08-16T08:57:56;32.90;47.00
1453;DHT22;720;47.738;7.998;2022-08-16T09:00:24;31.80;48.50
1453;DHT22;720;47.738;7.998;2022-08-16T09:02:50;31.00;50.10
1453;DHT22;720;47.738;7.998;2022-08-16T09:05:18;30.60;49.90
1453;DHT22;720;47.738;7.998;2022-08-16T09:07:44;30.00;51.20
1453;DHT22;720;47.738;7.998;2022-08-16T09:10:10;29.50;52.30
1453;DHT22;720;47.738;7.998;2022-08-16T09:12:37;29.30;51.70
1453;DHT22;720;47.738;7.998;2022-08-16T09:15:06;29.30;52.20
1453;DHT22;720;47.738;7.998;2022-08-16T09:17:32;28.60;52.40
1453;DHT22;720;47.738;7.998;2022-08-16T09:19:58;27.90;53.80
1453;DHT22;720;47.738;7.998;2022-08-16T09:22:25;27.30;55.90
1453;DHT22;720;47.738;7.998;2022-08-16T09:24:51;26.60;56.20
1453;DHT22;720;47.738;7.998;2022-08-16T09:27:17;26.20;57.40
1453;DHT22;720;47.738;7.998;2022-08-16T09:29:43;26.10;58.00
1453;DHT22;720;47.738;7.998;2022-08-16T09:32:09;25.90;58.90
1453;DHT22;720;47.738;7.998;2022-08-16T09:34:35;26.10;59.20
1453;DHT22;720;47.738;7.998;2022-08-16T09:37:01;26.40;59.30
1453;DHT22;720;47.738;7.998;2022-08-16T09:39:27;26.70;59.30
1453;DHT22;720;47.738;7.998;2022-08-16T09:41:53;27.50;57.90
1453;DHT22;720;47.738;7.998;2022-08-16T09:44:25;28.40;55.40
1453;DHT22;720;47.738;7.998;2022-08-16T09:46:54;28.60;54.50
1453;DHT22;720;47.738;7.998;2022-08-16T09:49:22;28.20;55.20
1453;DHT22;720;47.738;7.998;2022-08-16T09:51:49;28.10;55.20
1453;DHT22;720;47.738;7.998;2022-08-16T09:54:20;27.90;56.00
1453;DHT22;720;47.738;7.998;2022-08-16T09:56:47;27.70;56.80
1453;DHT22;720;47.738;7.998;2022-08-16T09:59:14;27.30;58.30
1453;DHT22;720;47.738;7.998;2022-08-16T10:01:40;27.30;57.80
1453;DHT22;720;47.738;7.998;2022-08-16T10:04:07;27.60;57.30
1453;DHT22;720;47.738;7.998;2022-08-16T10:06:33;28.60;57.30
1453;DHT22;720;47.738;7.998;2022-08-16T10:08:59;29.10;55.00
1453;DHT22;720;47.738;7.998;2022-08-16T10:11:24;29.10;54.20
1453;DHT22;720;47.738;7.998;2022-08-16T10:14:08;28.70;54.30
1453;DHT22;720;47.738;7.998;2022-08-16T10:16:34;27.90;56.30
1453;DHT22;720;47.738;7.998;2022-08-16T10:19:01;27.80;56.10
1453;DHT22;720;47.738;7.998;2022-08-16T10:21:27;27.90;56.50
1453;DHT22;720;47.738;7.998;2022-08-16T10:23:52;27.80;57.60
1453;DHT22;720;47.738;7.998;2022-08-16T10:26:20;27.30;55.70
1453;DHT22;720;47.738;7.998;2022-08-16T10:28:45;27.10;56.60
1453;DHT22;720;47.738;7.998;2022-08-16T10:31:11;27.30;58.20
1453;DHT22;720;47.738;7.998;2022-08-16T10:33:39;27.50;56.00
1453;DHT22;720;47.738;7.998;2022-08-16T10:36:06;27.30;56.70
1453;DHT22;720;47.738;7.998;2022-08-16T10:38:36;27.00;56.20
1453;DHT22;720;47.738;7.998;2022-08-16T10:41:02;27.40;56.50
1453;DHT22;720;47.738;7.998;2022-08-16T10:43:28;27.80;54.00
1453;DHT22;720;47.738;7.998;2022-08-16T10:45:54;28.20;53.10
1453;DHT22;720;47.738;7.998;2022-08-16T10:48:19;28.70;50.60
1453;DHT22;720;47.738;7.998;2022-08-16T10:50:45;29.00;52.10
1453;DHT22;720;47.738;7.998;2022-08-16T10:53:11;29.00;51.30
1453;DHT22;720;47.738;7.998;2022-08-16T10:55:39;28.80;51.80
1453;DHT22;720;47.738;7.998;2022-08-16T10:58:08;28.50;52.20
1453;DHT22;720;47.738;7.998;2022-08-16T11:00:36;28.30;53.00
1453;DHT22;720;47.738;7.998;2022-08-16T11:03:05;27.80;52.90
1453;DHT22;720;47.738;7.998;2022-08-16T11:05:34;27.40;54.90
1453;DHT22;720;47.738;7.998;2022-08-16T11:08:00;27.10;53.80
1453;DHT22;720;47.738;7.998;2022-08-16T11:10:33;27.00;54.80
1453;DHT22;720;47.738;7.998;2022-08-16T11:12:59;27.20;55.40
1453;DHT22;720;47.738;7.998;2022-08-16T11:15:25;27.40;54.10
1453;DHT22;720;47.738;7.998;2022-08-16T11:17:52;27.50;55.40
1453;DHT22;720;47.738;7.998;2022-08-16T11:20:18;27.70;55.20
1453;DHT22;720;47.738;7.998;2022-08-16T11:22:45;27.90;53.30
1453;DHT22;720;47.738;7.998;2022-08-16T11:25:12;28.00;52.00
1453;DHT22;720;47.738;7.998;2022-08-16T11:27:38;27.90;51.00
1453;DHT22;720;47.738;7.998;2022-08-16T11:30:04;27.70;50.50
1453;DHT22;720;47.738;7.998;2022-08-16T11:32:30;27.60;51.60
1453;DHT22;720;47.738;7.998;2022-08-16T11:34:56;27.40;50.60
1453;DHT22;720;47.738;7.998;2022-08-16T11:37:22;27.30;50.90
1453;DHT22;720;47.738;7.998;2022-08-16T11:39:48;27.50;52.30
1453;DHT22;720;47.738;7.998;2022-08-16T11:42:13;27.80;50.90
1453;DHT22;720;47.738;7.998;2022-08-16T11:44:39;27.90;52.00
1453;DHT22;720;47.738;7.998;2022-08-16T11:47:05;28.00;50.70
1453;DHT22;720;47.738;7.998;2022-08-16T11:49:31;27.90;50.30
1453;DHT22;720;47.738;7.998;2022-08-16T11:51:57;27.90;52.20
1453;DHT22;720;47.738;7.998;2022-08-16T11:54:22;27.60;51.60
1453;DHT22;720;47.738;7.998;2022-08-16T11:56:49;27.60;51.20
1453;DHT22;720;47.738;7.998;2022-08-16T11:59:15;27.80;50.40
1453;DHT22;720;47.738;7.998;2022-08-16T12:01:43;27.70;47.10
1453;DHT22;720;47.738;7.998;2022-08-16T12:04:09;27.60;47.90
1453;DHT22;720;47.738;7.998;2022-08-16T12:06:36;27.50;50.00
1453;DHT22;720;47.738;7.998;2022-08-16T12:09:04;27.60;50.00
1453;DHT22;720;47.738;7.998;2022-08-16T12:11:30;27.80;49.20
1453;DHT22;720;47.738;7.998;2022-08-16T12:13:55;27.90;52.40
1453;DHT22;720;47.738;7.998;2022-08-16T12:16:21;27.90;49.70
1453;DHT22;720;47.738;7.998;2022-08-16T12:18:47;27.90;50.40
1453;DHT22;720;47.738;7.998;2022-08-16T12:21:14;27.90;48.30
1453;DHT22;720;47.738;7.998;2022-08-16T12:23:40;27.80;49.10
1453;DHT22;720;47.738;7.998;2022-08-16T12:26:06;27.70;48.50
1453;DHT22;720;47.738;7.998;2022-08-16T12:28:31;27.70;50.10
1453;DHT22;720;47.738;7.998;2022-08-16T12:30:57;27.80;50.40
1453;DHT22;720;47.738;7.998;2022-08-16T12:33:23;27.90;48.40
1453;DHT22;720;47.738;7.998;2022-08-16T12:35:49;28.00;47.70
1453;DHT22;720;47.738;7.998;2022-08-16T12:38:15;28.00;48.00
1453;DHT22;720;47.738;7.998;2022-08-16T12:40:46;28.10;48.20
1453;DHT22;720;47.738;7.998;2022-08-16T12:43:14;28.00;45.70
1453;DHT22;720;47.738;7.998;2022-08-16T12:45:44;27.80;46.10
1453;DHT22;720;47.738;7.998;2022-08-16T12:48:11;27.60;46.30
1453;DHT22;720;47.738;7.998;2022-08-16T12:50:55;27.50;46.90
1453;DHT22;720;47.738;7.998;2022-08-16T12:53:21;27.40;46.50
1453;DHT22;720;47.738;7.998;2022-08-16T12:55:53;27.50;46.90
1453;DHT22;720;47.738;7.998;2022-08-16T12:58:19;27.50;46.60
1453;DHT22;720;47.738;7.998;2022-08-16T13:00:46;27.40;46.60
1453;DHT22;720;47.738;7.998;2022-08-16T13:03:13;27.40;46.80
1453;DHT22;720;47.738;7.998;2022-08-16T13:05:40;27.40;47.30
1453;DHT22;720;47.738;7.998;2022-08-16T13:08:11;27.50;46.90
1453;DHT22;720;47.738;7.998;2022-08-16T13:10:43;27.50;46.60
1453;DHT22;720;47.738;7.998;2022-08-16T13:13:11;27.60;46.60
1453;DHT22;720;47.738;7.998;2022-08-16T13:15:39;27.60;46.60
1453;DHT22;720;47.738;7.998;2022-08-16T13:18:05;27.70;46.40
1453;DHT22;720;47.738;7.998;2022-08-16T13:20:30;27.50;46.00
1453;DHT22;720;47.738;7.998;2022-08-16T13:23:06;27.30;46.40
1453;DHT22;720;47.738;7.998;2022-08-16T13:25:35;27.20;46.40
1453;DHT22;720;47.738;7.998;2022-08-16T13:28:01;27.20;47.60
1453;DHT22;720;47.738;7.998;2022-08-16T13:30:32;27.40;48.40
1453;DHT22;720;47.738;7.998;2022-08-16T13:32:58;27.40;46.70
1453;DHT22;720;47.738;7.998;2022-08-16T13:35:24;27.40;46.70
1453;DHT22;720;47.738;7.998;2022-08-16T13:37:50;27.50;45.90
1453;DHT22;720;47.738;7.998;2022-08-16T13:40:16;27.60;45.80
1453;DHT22;720;47.738;7.998;2022-08-16T13:42:42;27.30;44.90
1453;DHT22;720;47.738;7.998;2022-08-16T13:45:09;27.20;46.20
1453;DHT22;720;47.738;7.998;2022-08-16T13:47:35;27.10;45.60
1453;DHT22;720;47.738;7.998;2022-08-16T13:50:02;27.10;45.80
1453;DHT22;720;47.738;7.998;2022-08-16T13:52:29;27.10;46.50
1453;DHT22;720;47.738;7.998;2022-08-16T13:54:55;27.20;44.50
1453;DHT22;720;47.738;7.998;2022-08-16T13:57:21;27.30;44.10
1453;DHT22;720;47.738;7.998;2022-08-16T13:59:47;27.30;43.90
1453;DHT22;720;47.738;7.998;2022-08-16T14:02:13;27.20;43.00
1453;DHT22;720;47.738;7.998;2022-08-16T14:04:39;27.20;42.10
1453;DHT22;720;47.738;7.998;2022-08-16T14:07:08;27.20;44.20
1453;DHT22;720;47.738;7.998;2022-08-16T14:09:35;27.20;43.60
1453;DHT22;720;47.738;7.998;2022-08-16T14:12:04;27.10;42.40
1453;DHT22;720;47.738;7.998;2022-08-16T14:14:31;27.10;43.90
1453;DHT22;720;47.738;7.998;2022-08-16T14:16:58;27.20;42.90
1453;DHT22;720;47.738;7.998;2022-08-16T14:19:24;27.20;42.10
1453;DHT22;720;47.738;7.998;2022-08-16T14:21:53;27.20;42.70
1453;DHT22;720;47.738;7.998;2022-08-16T14:24:19;27.10;42.50
1453;DHT22;720;47.738;7.998;2022-08-16T14:26:46;27.00;42.60
1453;DHT22;720;47.738;7.998;2022-08-16T14:29:12;27.00;43.30
1453;DHT22;720;47.738;7.998;2022-08-16T14:31:38;27.10;45.80
1453;DHT22;720;47.738;7.998;2022-08-16T14:34:04;26.90;43.40
1453;DHT22;720;47.738;7.998;2022-08-16T14:36:31;27.00;43.30
1453;DHT22;720;47.738;7.998;2022-08-16T14:38:58;27.00;43.50
1453;DHT22;720;47.738;7.998;2022-08-16T14:41:24;27.00;43.80
1453;DHT22;720;47.738;7.998;2022-08-16T14:43:50;26.90;50.20
1453;DHT22;720;47.738;7.998;2022-08-16T14:46:15;26.70;46.70
1453;DHT22;720;47.738;7.998;2022-08-16T14:48:41;26.40;48.00
1453;DHT22;720;47.738;7.998;2022-08-16T14:51:06;26.30;46.70
1453;DHT22;720;47.738;7.998;2022-08-16T14:53:32;26.40;48.30
1453;DHT22;720;47.738;7.998;2022-08-16T14:55:58;26.30;49.50
1453;DHT22;720;47.738;7.998;2022-08-16T14:58:24;26.20;45.80
1453;DHT22;720;47.738;7.998;2022-08-16T15:00:49;26.20;45.10
1453;DHT22;720;47.738;7.998;2022-08-16T15:03:15;26.30;45.70
1453;DHT22;720;47.738;7.998;2022-08-16T15:05:41;26.20;52.00
1453;DHT22;720;47.738;7.998;2022-08-16T15:08:09;25.90;53.20
1453;DHT22;720;47.738;7.998;2022-08-16T15:10:36;25.70;50.40
1453;DHT22;720;47.738;7.998;2022-08-16T15:13:05;25.70;45.20
1453;DHT22;720;47.738;7.998;2022-08-16T15:15:31;25.60;52.70
1453;DHT22;720;47.738;7.998;2022-08-16T15:17:58;25.60;46.80
1453;DHT22;720;47.738;7.998;2022-08-16T15:20:26;25.60;51.10
1453;DHT22;720;47.738;7.998;2022-08-16T15:22:53;25.40;49.40
1453;DHT22;720;47.738;7.998;2022-08-16T15:25:25;25.20;53.70
1453;DHT22;720;47.738;7.998;2022-08-16T15:27:52;24.90;48.90
1453;DHT22;720;47.738;7.998;2022-08-16T15:30:22;24.80;54.90
1453;DHT22;720;47.738;7.998;2022-08-16T15:32:49;24.60;55.60
1453;DHT22;720;47.738;7.998;2022-08-16T15:35:16;24.40;55.70
1453;DHT22;720;47.738;7.998;2022-08-16T15:37:42;24.40;52.40
1453;DHT22;720;47.738;7.998;2022-08-16T15:40:13;24.40;51.80
1453;DHT22;720;47.738;7.998;2022-08-16T15:42:47;24.30;52.70
1453;DHT22;720;47.738;7.998;2022-08-16T15:45:13;24.20;54.30
1453;DHT22;720;47.738;7.998;2022-08-16T15:47:59;24.20;54.60
1453;DHT22;720;47.738;7.998;2022-08-16T15:50:24;24.10;52.60
1453;DHT22;720;47.738;7.998;2022-08-16T15:52:50;24.00;53.10
1453;DHT22;720;47.738;7.998;2022-08-16T15:55:15;24.00;49.20
1453;DHT22;720;47.738;7.998;2022-08-16T15:57:41;24.20;49.30
1453;DHT22;720;47.738;7.998;2022-08-16T16:00:07;24.20;48.10
1453;DHT22;720;47.738;7.998;2022-08-16T16:02:34;24.30;50.80
1453;DHT22;720;47.738;7.998;2022-08-16T16:05:01;24.30;51.20
1453;DHT22;720;47.738;7.998;2022-08-16T16:07:28;24.30;53.40
1453;DHT22;720;47.738;7.998;2022-08-16T16:09:53;24.00;54.10
1453;DHT22;720;47.738;7.998;2022-08-16T16:12:19;23.90;55.80
1453;DHT22;720;47.738;7.998;2022-08-16T16:14:44;23.80;51.90